sensor_id;sensor_type;location;lat;lon;timestamp;P1;durP1;ratioP1;P2;durP2;ratioP2
12206;SDS011;6166;42.806;23.408;2022-09-09T00:01:57;7.47;;;5.88;;
12206;SDS011;6166;42.806;23.408;2022-09-09T00:04:28;7.20;;;6.50;;
12206;SDS011;6166;42.806;23.408;2022-09-09T00:07:03;8.95;;;7.50;;
12206;SDS011;6166;42.806;23.408;2022-09-09T00:09:31;7.85;;;7.07;;
12206;SDS011;6166;42.806;23.408;2022-09-09T00:12:08;7.30;;;6.70;;
12206;SDS011;6166;42.806;23.408;2022-09-09T00:14:42;7.40;;;6.68;;
12206;SDS011;6166;42.806;23.408;2022-09-09T00:17:18;8.82;;;7.10;;
12206;SDS011;6166;42.806;23.408;2022-09-09T00:19:53;7.35;;;6.50;;
12206;SDS011;6166;42.806;23.408;2022-09-09T00:22:25;7.78;;;6.18;;
12206;SDS011;6166;42.806;23.408;2022-09-09T00:24:56;7.55;;;6.95;;
12206;SDS011;6166;42.806;23.408;2022-09-09T00:27:36;7.15;;;6.50;;
12206;SDS011;6166;42.806;23.408;2022-09-09T00:30:14;9.77;;;7.00;;
12206;SDS011;6166;42.806;23.408;2022-09-09T00:32:44;6.68;;;6.18;;
12206;SDS011;6166;42.806;23.408;2022-09-09T00:35:14;8.43;;;7.65;;
12206;SDS011;6166;42.806;23.408;2022-09-09T00:37:44;7.57;;;6.97;;
12206;SDS011;6166;42.806;23.408;2022-09-09T00:40:18;8.43;;;7.70;;
12206;SDS011;6166;42.806;23.408;2022-09-09T00:42:52;8.02;;;7.28;;
12206;SDS011;6166;42.806;23.408;2022-09-09T03:52:08;7.80;;;7.20;;
12206;SDS011;6166;42.806;23.408;2022-09-09T03:54:35;8.15;;;7.45;;
12206;SDS011;6166;42.806;23.408;2022-09-09T03:57:01;10.27;;;9.27;;
12206;SDS011;6166;42.806;23.408;2022-09-09T03:59:29;8.35;;;7.65;;
12206;SDS011;6166;42.806;23.408;2022-09-09T04:01:58;7.63;;;6.95;;
12206;SDS011;6166;42.806;23.408;2022-09-09T04:04:25;7.30;;;6.70;;
12206;SDS011;6166;42.806;23.408;2022-09-09T04:06:52;10.35;;;9.45;;
12206;SDS011;6166;42.806;23.408;2022-09-09T04:09:19;12.32;;;10.95;;
12206;SDS011;6166;42.806;23.408;2022-09-09T04:11:45;10.73;;;9.63;;
12206;SDS011;6166;42.806;23.408;2022-09-09T04:14:13;8.07;;;7.07;;
12206;SDS011;6166;42.806;23.408;2022-09-09T04:19:11;7.80;;;6.35;;
12206;SDS011;6166;42.806;23.408;2022-09-09T04:21:39;6.72;;;6.00;;
12206;SDS011;6166;42.806;23.408;2022-09-09T04:24:07;7.78;;;7.07;;
12206;SDS011;6166;42.806;23.408;2022-09-09T04:26:34;7.68;;;6.90;;
12206;SDS011;6166;42.806;23.408;2022-09-09T04:29:02;8.02;;;7.32;;
12206;SDS011;6166;42.806;23.408;2022-09-09T04:31:30;8.27;;;6.65;;
12206;SDS011;6166;42.806;23.408;2022-09-09T04:33:56;7.90;;;7.20;;
12206;SDS011;6166;42.806;23.408;2022-09-09T07:58:39;6.13;;;5.07;;
12206;SDS011;6166;42.806;23.408;2022-09-09T08:35:36;7.40;;;5.43;;
12206;SDS011;6166;42.806;23.408;2022-09-09T08:38:03;6.30;;;4.70;;
12206;SDS011;6166;42.806;23.408;2022-09-09T08:40:30;5.68;;;4.88;;
12206;SDS011;6166;42.806;23.408;2022-09-09T08:43:03;7.15;;;4.63;;
12206;SDS011;6166;42.806;23.408;2022-09-09T08:45:33;5.47;;;4.97;;
12206;SDS011;6166;42.806;23.408;2022-09-09T08:51:09;5.10;;;4.63;;
12206;SDS011;6166;42.806;23.408;2022-09-09T08:53:43;5.22;;;4.80;;
12206;SDS011;6166;42.806;23.408;2022-09-09T08:56:14;5.50;;;4.93;;
12206;SDS011;6166;42.806;23.408;2022-09-09T08:58:45;6.70;;;4.80;;
12206;SDS011;6166;42.806;23.408;2022-09-09T09:04:21;6.68;;;5.00;;
12206;SDS011;6166;42.806;23.408;2022-09-09T09:07:02;5.88;;;4.75;;
12206;SDS011;6166;42.806;23.408;2022-09-09T09:09:45;5.97;;;4.88;;
12206;SDS011;6166;42.806;23.408;2022-09-09T09:12:18;5.15;;;4.65;;
12206;SDS011;6166;42.806;23.408;2022-09-09T09:14:47;5.20;;;4.70;;
12206;SDS011;6166;42.806;23.408;2022-09-09T09:17:36;5.13;;;4.63;;
12206;SDS011;6166;42.806;23.408;2022-09-09T09:20:18;7.20;;;4.93;;
12206;SDS011;6166;42.806;23.408;2022-09-09T09:23:04;7.00;;;5.03;;
12206;SDS011;6166;42.806;23.408;2022-09-09T09:25:34;5.30;;;4.80;;
12206;SDS011;6166;42.806;23.408;2022-09-09T09:28:10;6.32;;;5.63;;
12206;SDS011;6166;42.806;23.408;2022-09-09T09:30:55;5.55;;;5.05;;
12206;SDS011;6166;42.806;23.408;2022-09-09T09:33:47;8.75;;;5.20;;
12206;SDS011;6166;42.806;23.408;2022-09-09T09:36:21;5.38;;;4.97;;
12206;SDS011;6166;42.806;23.408;2022-09-09T09:38:59;8.18;;;5.50;;
12206;SDS011;6166;42.806;23.408;2022-09-09T09:41:32;6.75;;;5.00;;
12206;SDS011;6166;42.806;23.408;2022-09-09T09:44:20;6.82;;;5.22;;
12206;SDS011;6166;42.806;23.408;2022-09-09T09:46:50;5.60;;;4.68;;
12206;SDS011;6166;42.806;23.408;2022-09-09T09:49:16;8.65;;;5.28;;
12206;SDS011;6166;42.806;23.408;2022-09-09T09:51:44;6.03;;;5.38;;
12206;SDS011;6166;42.806;23.408;2022-09-09T09:54:16;9.25;;;5.63;;
12206;SDS011;6166;42.806;23.408;2022-09-09T09:56:48;7.45;;;6.53;;
12206;SDS011;6166;42.806;23.408;2022-09-09T09:59:22;10.25;;;6.18;;
12206;SDS011;6166;42.806;23.408;2022-09-09T10:02:25;6.00;;;5.53;;
12206;SDS011;6166;42.806;23.408;2022-09-09T10:05:00;7.30;;;6.13;;
12206;SDS011;6166;42.806;23.408;2022-09-09T10:07:30;6.53;;;5.70;;
12206;SDS011;6166;42.806;23.408;2022-09-09T10:09:58;6.75;;;5.97;;
12206;SDS011;6166;42.806;23.408;2022-09-09T10:12:29;5.88;;;5.22;;
12206;SDS011;6166;42.806;23.408;2022-09-09T10:15:11;6.38;;;5.78;;
12206;SDS011;6166;42.806;23.408;2022-09-09T10:17:56;6.32;;;5.70;;
12206;SDS011;6166;42.806;23.408;2022-09-09T10:20:32;6.93;;;5.75;;
12206;SDS011;6166;42.806;23.408;2022-09-09T10:23:14;6.22;;;5.43;;
12206;SDS011;6166;42.806;23.408;2022-09-09T10:25:56;6.32;;;5.68;;
12206;SDS011;6166;42.806;23.408;2022-09-09T10:28:58;6.88;;;6.28;;
12206;SDS011;6166;42.806;23.408;2022-09-09T10:31:49;6.15;;;5.55;;
12206;SDS011;6166;42.806;23.408;2022-09-09T10:34:52;6.22;;;5.53;;
12206;SDS011;6166;42.806;23.408;2022-09-09T10:37:30;6.47;;;5.88;;
12206;SDS011;6166;42.806;23.408;2022-09-09T10:40:15;9.07;;;5.88;;
12206;SDS011;6166;42.806;23.408;2022-09-09T10:42:56;7.47;;;6.15;;
12206;SDS011;6166;42.806;23.408;2022-09-09T10:45:37;8.13;;;6.68;;
12206;SDS011;6166;42.806;23.408;2022-09-09T10:48:36;6.72;;;6.13;;
12206;SDS011;6166;42.806;23.408;2022-09-09T10:51:23;6.32;;;5.70;;
12206;SDS011;6166;42.806;23.408;2022-09-09T10:54:10;11.43;;;7.97;;
12206;SDS011;6166;42.806;23.408;2022-09-09T10:57:09;6.35;;;5.82;;
12206;SDS011;6166;42.806;23.408;2022-09-09T10:59:44;6.63;;;5.28;;
12206;SDS011;6166;42.806;23.408;2022-09-09T11:02:50;10.70;;;7.43;;
12206;SDS011;6166;42.806;23.408;2022-09-09T11:05:12;12.05;;;8.73;;
12206;SDS011;6166;42.806;23.408;2022-09-09T11:07:53;6.93;;;6.30;;
12206;SDS011;6166;42.806;23.408;2022-09-09T11:10:41;7.78;;;6.80;;
12206;SDS011;6166;42.806;23.408;2022-09-09T11:13:19;8.52;;;6.88;;
12206;SDS011;6166;42.806;23.408;2022-09-09T11:15:53;7.25;;;6.63;;
12206;SDS011;6166;42.806;23.408;2022-09-09T11:18:37;7.45;;;6.75;;
12206;SDS011;6166;42.806;23.408;2022-09-09T11:21:12;7.80;;;6.65;;
12206;SDS011;6166;42.806;23.408;2022-09-09T11:23:48;6.70;;;6.10;;
12206;SDS011;6166;42.806;23.408;2022-09-09T11:26:21;7.15;;;6.55;;
12206;SDS011;6166;42.806;23.408;2022-09-09T11:29:01;7.63;;;6.93;;
12206;SDS011;6166;42.806;23.408;2022-09-09T11:31:51;8.05;;;6.90;;
12206;SDS011;6166;42.806;23.408;2022-09-09T11:34:53;7.18;;;6.47;;
12206;SDS011;6166;42.806;23.408;2022-09-09T11:40:30;8.52;;;7.22;;
12206;SDS011;6166;42.806;23.408;2022-09-09T11:43:01;8.98;;;6.97;;
12206;SDS011;6166;42.806;23.408;2022-09-09T11:45:37;7.22;;;6.53;;
12206;SDS011;6166;42.806;23.408;2022-09-09T11:48:05;8.45;;;7.60;;
12206;SDS011;6166;42.806;23.408;2022-09-09T11:50:35;8.23;;;6.72;;
12206;SDS011;6166;42.806;23.408;2022-09-09T11:53:05;10.27;;;7.25;;
12206;SDS011;6166;42.806;23.408;2022-09-09T11:56:05;7.85;;;6.95;;
12206;SDS011;6166;42.806;23.408;2022-09-09T11:58:38;16.88;;;11.65;;
12206;SDS011;6166;42.806;23.408;2022-09-09T12:01:16;8.77;;;7.88;;
12206;SDS011;6166;42.806;23.408;2022-09-09T12:06:51;9.18;;;7.45;;
12206;SDS011;6166;42.806;23.408;2022-09-09T12:09:24;9.43;;;7.95;;
12206;SDS011;6166;42.806;23.408;2022-09-09T12:12:16;11.05;;;7.53;;
12206;SDS011;6166;42.806;23.408;2022-09-09T12:17:57;9.38;;;7.72;;
12206;SDS011;6166;42.806;23.408;2022-09-09T12:20:36;10.32;;;7.65;;
12206;SDS011;6166;42.806;23.408;2022-09-09T12:23:12;7.97;;;7.28;;
12206;SDS011;6166;42.806;23.408;2022-09-09T12:25:56;8.13;;;6.90;;
12206;SDS011;6166;42.806;23.408;2022-09-09T12:28:36;8.98;;;7.68;;
12206;SDS011;6166;42.806;23.408;2022-09-09T12:31:12;10.07;;;8.93;;
12206;SDS011;6166;42.806;23.408;2022-09-09T12:33:46;11.32;;;8.35;;
12206;SDS011;6166;42.806;23.408;2022-09-09T12:36:16;8.05;;;7.20;;
12206;SDS011;6166;42.806;23.408;2022-09-09T12:38:54;10.57;;;8.38;;
12206;SDS011;6166;42.806;23.408;2022-09-09T12:41:38;9.30;;;7.93;;
12206;SDS011;6166;42.806;23.408;2022-09-09T12:44:09;8.68;;;7.90;;
12206;SDS011;6166;42.806;23.408;2022-09-09T12:46:36;10.10;;;8.88;;
12206;SDS011;6166;42.806;23.408;2022-09-09T12:49:19;9.00;;;8.18;;
12206;SDS011;6166;42.806;23.408;2022-09-09T12:51:54;8.60;;;7.70;;
12206;SDS011;6166;42.806;23.408;2022-09-09T12:54:23;8.48;;;7.70;;
12206;SDS011;6166;42.806;23.408;2022-09-09T12:56:50;9.75;;;8.75;;
12206;SDS011;6166;42.806;23.408;2022-09-09T12:59:21;9.80;;;8.90;;
12206;SDS011;6166;42.806;23.408;2022-09-09T13:01:55;10.15;;;7.90;;
12206;SDS011;6166;42.806;23.408;2022-09-09T13:04:24;10.65;;;7.88;;
12206;SDS011;6166;42.806;23.408;2022-09-09T13:07:10;9.30;;;8.30;;
12206;SDS011;6166;42.806;23.408;2022-09-09T13:09:41;9.50;;;8.52;;
12206;SDS011;6166;42.806;23.408;2022-09-09T13:12:11;14.10;;;10.02;;
12206;SDS011;6166;42.806;23.408;2022-09-09T13:14:42;8.85;;;7.93;;
12206;SDS011;6166;42.806;23.408;2022-09-09T13:17:15;12.70;;;9.05;;
12206;SDS011;6166;42.806;23.408;2022-09-09T13:19:50;11.85;;;9.65;;
12206;SDS011;6166;42.806;23.408;2022-09-09T13:22:20;9.40;;;8.55;;
12206;SDS011;6166;42.806;23.408;2022-09-09T13:25:17;9.18;;;8.35;;
12206;SDS011;6166;42.806;23.408;2022-09-09T13:27:58;9.05;;;7.93;;
12206;SDS011;6166;42.806;23.408;2022-09-09T13:30:33;7.88;;;7.18;;
12206;SDS011;6166;42.806;23.408;2022-09-09T13:33:24;9.27;;;8.18;;
12206;SDS011;6166;42.806;23.408;2022-09-09T13:36:04;9.52;;;8.60;;
12206;SDS011;6166;42.806;23.408;2022-09-09T13:38:42;9.30;;;8.35;;
12206;SDS011;6166;42.806;23.408;2022-09-09T13:41:32;11.05;;;8.30;;
12206;SDS011;6166;42.806;23.408;2022-09-09T13:44:02;8.23;;;7.43;;
12206;SDS011;6166;42.806;23.408;2022-09-09T13:49:19;9.40;;;7.90;;
12206;SDS011;6166;42.806;23.408;2022-09-09T13:51:49;9.82;;;8.23;;
12206;SDS011;6166;42.806;23.408;2022-09-09T13:54:19;11.25;;;8.73;;
12206;SDS011;6166;42.806;23.408;2022-09-09T13:56:49;10.43;;;9.43;;
12206;SDS011;6166;42.806;23.408;2022-09-09T13:59:17;9.15;;;8.27;;
12206;SDS011;6166;42.806;23.408;2022-09-09T14:01:50;8.70;;;7.90;;
12206;SDS011;6166;42.806;23.408;2022-09-09T14:04:17;8.23;;;7.53;;
12206;SDS011;6166;42.806;23.408;2022-09-09T14:06:46;9.20;;;8.40;;
12206;SDS011;6166;42.806;23.408;2022-09-09T14:09:16;8.85;;;7.97;;
12206;SDS011;6166;42.806;23.408;2022-09-09T14:11:44;8.27;;;7.47;;
12206;SDS011;6166;42.806;23.408;2022-09-09T14:14:30;8.73;;;7.93;;
12206;SDS011;6166;42.806;23.408;2022-09-09T14:16:57;9.27;;;8.27;;
12206;SDS011;6166;42.806;23.408;2022-09-09T14:19:23;12.20;;;8.35;;
12206;SDS011;6166;42.806;23.408;2022-09-09T14:22:09;8.25;;;7.47;;
12206;SDS011;6166;42.806;23.408;2022-09-09T14:24:43;6.40;;;5.80;;
12206;SDS011;6166;42.806;23.408;2022-09-09T14:27:23;6.30;;;5.18;;
12206;SDS011;6166;42.806;23.408;2022-09-09T14:29:58;6.68;;;5.18;;
12206;SDS011;6166;42.806;23.408;2022-09-09T14:32:34;7.47;;;5.03;;
12206;SDS011;6166;42.806;23.408;2022-09-09T14:35:10;9.70;;;5.68;;
12206;SDS011;6166;42.806;23.408;2022-09-09T14:37:41;6.43;;;5.80;;
12206;SDS011;6166;42.806;23.408;2022-09-09T14:40:33;8.57;;;5.13;;
12206;SDS011;6166;42.806;23.408;2022-09-09T14:43:01;9.60;;;5.65;;
12206;SDS011;6166;42.806;23.408;2022-09-09T14:45:28;5.03;;;4.63;;
12206;SDS011;6166;42.806;23.408;2022-09-09T14:47:55;5.22;;;4.60;;
12206;SDS011;6166;42.806;23.408;2022-09-09T14:50:24;7.57;;;5.25;;
12206;SDS011;6166;42.806;23.408;2022-09-09T14:53:17;9.30;;;5.35;;
12206;SDS011;6166;42.806;23.408;2022-09-09T14:55:43;10.73;;;5.72;;
12206;SDS011;6166;42.806;23.408;2022-09-09T14:58:11;7.15;;;4.45;;
12206;SDS011;6166;42.806;23.408;2022-09-09T15:00:38;4.78;;;4.32;;
12206;SDS011;6166;42.806;23.408;2022-09-09T15:03:09;4.75;;;4.32;;
12206;SDS011;6166;42.806;23.408;2022-09-09T15:05:35;9.50;;;4.97;;
12206;SDS011;6166;42.806;23.408;2022-09-09T15:08:10;6.25;;;4.78;;
12206;SDS011;6166;42.806;23.408;2022-09-09T15:10:50;7.72;;;5.13;;
12206;SDS011;6166;42.806;23.408;2022-09-09T15:13:24;9.57;;;4.88;;
12206;SDS011;6166;42.806;23.408;2022-09-09T15:15:51;6.53;;;5.15;;
12206;SDS011;6166;42.806;23.408;2022-09-09T15:18:19;5.97;;;4.32;;
12206;SDS011;6166;42.806;23.408;2022-09-09T15:20:46;6.63;;;4.57;;
12206;SDS011;6166;42.806;23.408;2022-09-09T15:23:19;4.22;;;3.85;;
12206;SDS011;6166;42.806;23.408;2022-09-09T15:25:59;7.50;;;5.25;;
12206;SDS011;6166;42.806;23.408;2022-09-09T15:28:27;5.53;;;4.93;;
12206;SDS011;6166;42.806;23.408;2022-09-09T15:31:16;5.10;;;4.55;;
12206;SDS011;6166;42.806;23.408;2022-09-09T15:33:47;6.03;;;5.07;;
12206;SDS011;6166;42.806;23.408;2022-09-09T15:36:15;8.63;;;5.20;;
12206;SDS011;6166;42.806;23.408;2022-09-09T15:38:44;6.20;;;5.05;;
12206;SDS011;6166;42.806;23.408;2022-09-09T15:41:13;9.88;;;5.70;;
12206;SDS011;6166;42.806;23.408;2022-09-09T15:43:42;5.80;;;5.18;;
12206;SDS011;6166;42.806;23.408;2022-09-09T15:46:26;8.32;;;5.30;;
12206;SDS011;6166;42.806;23.408;2022-09-09T15:48:55;8.00;;;4.95;;
12206;SDS011;6166;42.806;23.408;2022-09-09T15:51:24;8.40;;;5.90;;
12206;SDS011;6166;42.806;23.408;2022-09-09T15:54:00;5.45;;;4.95;;
12206;SDS011;6166;42.806;23.408;2022-09-09T15:56:33;6.85;;;5.70;;
12206;SDS011;6166;42.806;23.408;2022-09-09T15:59:01;7.05;;;5.53;;
12206;SDS011;6166;42.806;23.408;2022-09-09T16:01:28;9.90;;;6.00;;
12206;SDS011;6166;42.806;23.408;2022-09-09T16:04:07;5.97;;;5.47;;
12206;SDS011;6166;42.806;23.408;2022-09-09T16:06:34;10.10;;;7.65;;
12206;SDS011;6166;42.806;23.408;2022-09-09T16:09:02;12.73;;;6.40;;
12206;SDS011;6166;42.806;23.408;2022-09-09T16:11:31;6.43;;;5.10;;
12206;SDS011;6166;42.806;23.408;2022-09-09T16:14:05;6.65;;;6.05;;
12206;SDS011;6166;42.806;23.408;2022-09-09T16:16:39;7.20;;;6.57;;
12206;SDS011;6166;42.806;23.408;2022-09-09T16:19:07;10.70;;;5.57;;
12206;SDS011;6166;42.806;23.408;2022-09-09T16:21:39;8.82;;;5.72;;
12206;SDS011;6166;42.806;23.408;2022-09-09T16:24:08;7.45;;;6.40;;
12206;SDS011;6166;42.806;23.408;2022-09-09T16:26:37;9.32;;;6.60;;
12206;SDS011;6166;42.806;23.408;2022-09-09T16:29:06;9.20;;;6.50;;
12206;SDS011;6166;42.806;23.408;2022-09-09T16:31:37;11.40;;;6.00;;
12206;SDS011;6166;42.806;23.408;2022-09-09T16:34:25;6.40;;;5.55;;
12206;SDS011;6166;42.806;23.408;2022-09-09T16:36:51;9.82;;;6.75;;
12206;SDS011;6166;42.806;23.408;2022-09-09T16:39:19;30.98;;;27.80;;
12206;SDS011;6166;42.806;23.408;2022-09-09T16:41:46;25.98;;;23.23;;
12206;SDS011;6166;42.806;23.408;2022-09-09T16:44:16;9.40;;;8.18;;
12206;SDS011;6166;42.806;23.408;2022-09-09T16:46:44;8.75;;;6.43;;
12206;SDS011;6166;42.806;23.408;2022-09-09T16:49:15;13.95;;;6.72;;
12206;SDS011;6166;42.806;23.408;2022-09-09T16:51:45;9.82;;;7.85;;
12206;SDS011;6166;42.806;23.408;2022-09-09T16:54:13;8.55;;;7.03;;
12206;SDS011;6166;42.806;23.408;2022-09-09T16:56:43;10.02;;;7.85;;
12206;SDS011;6166;42.806;23.408;2022-09-09T16:59:12;6.53;;;5.93;;
12206;SDS011;6166;42.806;23.408;2022-09-09T17:01:41;7.32;;;6.55;;
12206;SDS011;6166;42.806;23.408;2022-09-09T17:04:09;9.88;;;6.70;;
12206;SDS011;6166;42.806;23.408;2022-09-09T17:06:45;7.43;;;6.10;;
12206;SDS011;6166;42.806;23.408;2022-09-09T17:09:28;10.07;;;6.68;;
12206;SDS011;6166;42.806;23.408;2022-09-09T17:11:56;6.93;;;6.20;;
12206;SDS011;6166;42.806;23.408;2022-09-09T17:14:23;7.30;;;6.10;;
12206;SDS011;6166;42.806;23.408;2022-09-09T17:16:51;6.85;;;6.00;;
12206;SDS011;6166;42.806;23.408;2022-09-09T17:19:18;7.75;;;6.80;;
12206;SDS011;6166;42.806;23.408;2022-09-09T17:21:48;9.80;;;6.95;;
12206;SDS011;6166;42.806;23.408;2022-09-09T17:24:15;7.68;;;6.32;;
12206;SDS011;6166;42.806;23.408;2022-09-09T17:26:42;9.57;;;6.28;;
12206;SDS011;6166;42.806;23.408;2022-09-09T17:29:10;7.20;;;6.50;;
12206;SDS011;6166;42.806;23.408;2022-09-09T17:31:37;9.35;;;6.45;;
12206;SDS011;6166;42.806;23.408;2022-09-09T17:34:11;9.82;;;7.85;;
12206;SDS011;6166;42.806;23.408;2022-09-09T17:36:38;9.35;;;8.38;;
12206;SDS011;6166;42.806;23.408;2022-09-09T17:39:05;7.32;;;6.63;;
12206;SDS011;6166;42.806;23.408;2022-09-09T17:41:34;6.85;;;6.15;;
12206;SDS011;6166;42.806;23.408;2022-09-09T17:44:07;10.15;;;6.65;;
12206;SDS011;6166;42.806;23.408;2022-09-09T17:46:36;8.30;;;6.03;;
12206;SDS011;6166;42.806;23.408;2022-09-09T17:49:23;7.07;;;6.10;;
12206;SDS011;6166;42.806;23.408;2022-09-09T17:51:55;9.40;;;7.40;;
12206;SDS011;6166;42.806;23.408;2022-09-09T17:54:22;11.45;;;7.97;;
12206;SDS011;6166;42.806;23.408;2022-09-09T17:56:50;8.93;;;6.47;;
12206;SDS011;6166;42.806;23.408;2022-09-09T17:59:17;9.77;;;6.13;;
12206;SDS011;6166;42.806;23.408;2022-09-09T18:01:44;11.40;;;8.35;;
12206;SDS011;6166;42.806;23.408;2022-09-09T18:04:14;10.70;;;7.97;;
12206;SDS011;6166;42.806;23.408;2022-09-09T18:06:46;13.23;;;10.48;;
12206;SDS011;6166;42.806;23.408;2022-09-09T18:09:26;7.00;;;6.30;;
12206;SDS011;6166;42.806;23.408;2022-09-09T18:11:54;7.40;;;5.65;;
12206;SDS011;6166;42.806;23.408;2022-09-09T18:14:23;7.20;;;6.30;;
12206;SDS011;6166;42.806;23.408;2022-09-09T18:16:52;8.38;;;5.68;;
12206;SDS011;6166;42.806;23.408;2022-09-09T18:19:20;6.97;;;6.25;;
12206;SDS011;6166;42.806;23.408;2022-09-09T18:21:50;6.68;;;5.75;;
12206;SDS011;6166;42.806;23.408;2022-09-09T18:24:20;6.43;;;5.45;;
12206;SDS011;6166;42.806;23.408;2022-09-09T18:26:56;6.30;;;5.22;;
12206;SDS011;6166;42.806;23.408;2022-09-09T18:29:40;7.80;;;5.93;;
12206;SDS011;6166;42.806;23.408;2022-09-09T18:32:07;6.07;;;5.50;;
12206;SDS011;6166;42.806;23.408;2022-09-09T18:34:34;8.85;;;5.90;;
12206;SDS011;6166;42.806;23.408;2022-09-09T18:37:02;8.65;;;5.75;;
12206;SDS011;6166;42.806;23.408;2022-09-09T18:39:29;8.43;;;6.60;;
12206;SDS011;6166;42.806;23.408;2022-09-09T18:41:57;7.47;;;6.63;;
12206;SDS011;6166;42.806;23.408;2022-09-09T18:44:26;6.57;;;5.80;;
12206;SDS011;6166;42.806;23.408;2022-09-09T18:46:54;8.57;;;5.80;;
12206;SDS011;6166;42.806;23.408;2022-09-09T18:49:22;9.30;;;6.03;;
12206;SDS011;6166;42.806;23.408;2022-09-09T18:52:18;7.75;;;6.13;;
12206;SDS011;6166;42.806;23.408;2022-09-09T18:54:44;5.70;;;4.90;;
12206;SDS011;6166;42.806;23.408;2022-09-09T18:57:12;6.55;;;4.78;;
12206;SDS011;6166;42.806;23.408;2022-09-09T18:59:46;6.47;;;5.45;;
12206;SDS011;6166;42.806;23.408;2022-09-09T19:02:26;6.47;;;5.97;;
12206;SDS011;6166;42.806;23.408;2022-09-09T19:04:54;5.95;;;5.40;;
12206;SDS011;6166;42.806;23.408;2022-09-09T19:07:22;7.63;;;5.65;;
12206;SDS011;6166;42.806;23.408;2022-09-09T19:09:49;6.22;;;5.63;;
12206;SDS011;6166;42.806;23.408;2022-09-09T19:12:21;7.50;;;6.00;;
12206;SDS011;6166;42.806;23.408;2022-09-09T19:14:51;7.82;;;5.88;;
12206;SDS011;6166;42.806;23.408;2022-09-09T19:17:17;8.63;;;6.43;;
12206;SDS011;6166;42.806;23.408;2022-09-09T19:19:44;6.85;;;5.97;;
12206;SDS011;6166;42.806;23.408;2022-09-09T19:22:12;8.45;;;6.63;;
12206;SDS011;6166;42.806;23.408;2022-09-09T19:24:40;8.07;;;6.35;;
12206;SDS011;6166;42.806;23.408;2022-09-09T19:27:07;7.15;;;6.40;;
12206;SDS011;6166;42.806;23.408;2022-09-09T19:29:35;6.85;;;6.18;;
12206;SDS011;6166;42.806;23.408;2022-09-09T19:32:08;8.75;;;5.97;;
12206;SDS011;6166;42.806;23.408;2022-09-09T19:34:35;6.75;;;6.22;;
12206;SDS011;6166;42.806;23.408;2022-09-09T19:37:11;7.25;;;6.18;;
12206;SDS011;6166;42.806;23.408;2022-09-09T19:39:39;7.47;;;6.60;;
12206;SDS011;6166;42.806;23.408;2022-09-09T19:42:06;8.43;;;6.63;;
12206;SDS011;6166;42.806;23.408;2022-09-09T19:44:33;7.32;;;6.30;;
12206;SDS011;6166;42.806;23.408;2022-09-09T19:47:01;9.07;;;7.47;;
12206;SDS011;6166;42.806;23.408;2022-09-09T19:49:29;7.65;;;6.93;;
12206;SDS011;6166;42.806;23.408;2022-09-09T19:51:56;7.40;;;6.40;;
12206;SDS011;6166;42.806;23.408;2022-09-09T19:54:23;8.63;;;7.15;;
12206;SDS011;6166;42.806;23.408;2022-09-09T19:56:51;10.57;;;7.15;;
12206;SDS011;6166;42.806;23.408;2022-09-09T19:59:18;7.43;;;6.57;;
12206;SDS011;6166;42.806;23.408;2022-09-09T20:01:47;10.43;;;6.63;;
12206;SDS011;6166;42.806;23.408;2022-09-09T20:04:15;7.55;;;6.45;;
12206;SDS011;6166;42.806;23.408;2022-09-09T20:06:42;7.78;;;7.07;;
12206;SDS011;6166;42.806;23.408;2022-09-09T20:09:10;8.73;;;7.13;;
12206;SDS011;6166;42.806;23.408;2022-09-09T20:11:39;7.88;;;6.53;;
12206;SDS011;6166;42.806;23.408;2022-09-09T20:14:07;9.07;;;6.53;;
12206;SDS011;6166;42.806;23.408;2022-09-09T20:16:35;7.32;;;6.43;;
12206;SDS011;6166;42.806;23.408;2022-09-09T20:19:08;9.07;;;6.07;;
12206;SDS011;6166;42.806;23.408;2022-09-09T20:21:37;7.00;;;6.30;;
12206;SDS011;6166;42.806;23.408;2022-09-09T20:24:05;7.05;;;6.45;;
12206;SDS011;6166;42.806;23.408;2022-09-09T20:26:34;8.20;;;6.05;;
12206;SDS011;6166;42.806;23.408;2022-09-09T20:29:04;6.30;;;5.70;;
12206;SDS011;6166;42.806;23.408;2022-09-09T20:31:51;6.70;;;5.90;;
12206;SDS011;6166;42.806;23.408;2022-09-09T20:34:18;6.22;;;5.72;;
12206;SDS011;6166;42.806;23.408;2022-09-09T20:36:47;6.72;;;5.97;;
12206;SDS011;6166;42.806;23.408;2022-09-09T20:39:15;6.85;;;6.15;;
12206;SDS011;6166;42.806;23.408;2022-09-09T20:41:44;7.63;;;6.07;;
12206;SDS011;6166;42.806;23.408;2022-09-09T20:44:12;7.10;;;6.47;;
12206;SDS011;6166;42.806;23.408;2022-09-09T20:46:41;7.57;;;6.88;;
12206;SDS011;6166;42.806;23.408;2022-09-09T20:49:32;7.65;;;6.88;;
12206;SDS011;6166;42.806;23.408;2022-09-09T20:52:00;7.13;;;6.45;;
12206;SDS011;6166;42.806;23.408;2022-09-09T20:54:27;7.85;;;6.85;;
12206;SDS011;6166;42.806;23.408;2022-09-09T20:56:55;8.52;;;6.30;;
12206;SDS011;6166;42.806;23.408;2022-09-09T20:59:23;7.75;;;6.30;;
12206;SDS011;6166;42.806;23.408;2022-09-09T21:01:51;7.72;;;6.93;;
12206;SDS011;6166;42.806;23.408;2022-09-09T21:04:21;6.38;;;5.88;;
12206;SDS011;6166;42.806;23.408;2022-09-09T21:06:53;8.13;;;6.55;;
12206;SDS011;6166;42.806;23.408;2022-09-09T21:09:20;6.90;;;6.30;;
12206;SDS011;6166;42.806;23.408;2022-09-09T21:11:48;7.55;;;6.60;;
12206;SDS011;6166;42.806;23.408;2022-09-09T21:14:17;7.00;;;6.30;;
12206;SDS011;6166;42.806;23.408;2022-09-09T21:16:50;7.18;;;6.10;;
12206;SDS011;6166;42.806;23.408;2022-09-09T21:19:16;7.13;;;6.45;;
12206;SDS011;6166;42.806;23.408;2022-09-09T21:21:43;7.35;;;6.65;;
12206;SDS011;6166;42.806;23.408;2022-09-09T21:24:13;6.72;;;6.13;;
12206;SDS011;6166;42.806;23.408;2022-09-09T21:26:40;7.63;;;6.80;;
12206;SDS011;6166;42.806;23.408;2022-09-09T21:29:06;8.18;;;6.68;;
12206;SDS011;6166;42.806;23.408;2022-09-09T21:31:34;7.95;;;6.68;;
12206;SDS011;6166;42.806;23.408;2022-09-09T21:34:03;6.88;;;5.95;;
12206;SDS011;6166;42.806;23.408;2022-09-09T21:36:31;7.25;;;6.55;;
12206;SDS011;6166;42.806;23.408;2022-09-09T21:38:58;10.23;;;6.18;;
12206;SDS011;6166;42.806;23.408;2022-09-09T21:41:26;6.93;;;5.90;;
12206;SDS011;6166;42.806;23.408;2022-09-09T21:43:53;6.10;;;5.60;;
12206;SDS011;6166;42.806;23.408;2022-09-09T21:46:22;7.00;;;6.30;;
12206;SDS011;6166;42.806;23.408;2022-09-09T21:48:52;8.10;;;5.97;;
12206;SDS011;6166;42.806;23.408;2022-09-09T21:51:20;6.47;;;5.88;;
12206;SDS011;6166;42.806;23.408;2022-09-09T21:53:53;6.43;;;5.65;;
12206;SDS011;6166;42.806;23.408;2022-09-09T21:56:21;6.45;;;5.95;;
12206;SDS011;6166;42.806;23.408;2022-09-09T21:58:54;6.72;;;6.07;;
12206;SDS011;6166;42.806;23.408;2022-09-09T22:01:21;7.38;;;6.50;;
12206;SDS011;6166;42.806;23.408;2022-09-09T22:03:52;7.00;;;6.25;;
12206;SDS011;6166;42.806;23.408;2022-09-09T22:06:22;6.13;;;5.53;;
12206;SDS011;6166;42.806;23.408;2022-09-09T22:08:48;7.05;;;6.35;;
12206;SDS011;6166;42.806;23.408;2022-09-09T22:11:16;7.10;;;5.78;;
12206;SDS011;6166;42.806;23.408;2022-09-09T22:13:46;6.22;;;5.63;;
12206;SDS011;6166;42.806;23.408;2022-09-09T22:16:15;8.55;;;6.22;;
12206;SDS011;6166;42.806;23.408;2022-09-09T22:18:44;6.28;;;5.78;;
12206;SDS011;6166;42.806;23.408;2022-09-09T22:21:16;6.05;;;5.55;;
12206;SDS011;6166;42.806;23.408;2022-09-09T22:23:50;6.47;;;5.88;;
12206;SDS011;6166;42.806;23.408;2022-09-09T22:26:18;6.70;;;5.80;;
12206;SDS011;6166;42.806;23.408;2022-09-09T22:28:52;7.03;;;6.00;;
12206;SDS011;6166;42.806;23.408;2022-09-09T22:31:20;8.00;;;6.07;;
12206;SDS011;6166;42.806;23.408;2022-09-09T22:33:47;7.75;;;6.03;;
12206;SDS011;6166;42.806;23.408;2022-09-09T22:36:15;8.60;;;5.65;;
12206;SDS011;6166;42.806;23.408;2022-09-09T22:38:43;5.70;;;5.15;;
12206;SDS011;6166;42.806;23.408;2022-09-09T22:41:11;6.47;;;5.97;;
12206;SDS011;6166;42.806;23.408;2022-09-09T22:43:40;6.78;;;5.90;;